<?xml version="1.0" encoding="UTF-8" standalone="no" ?> 
<gpx xmlns="http://www.topografix.com/GPX/1/1" xmlns:gpxtpx="http://www.garmin.com/xmlschemas/TrackPointExtension/v1" creator="OruxMaps v.7.4.27" version="1.1" xmlns:xsi="http://www.w3.org/2001/XMLSchema-instance" xsi:schemaLocation="http://www.topografix.com/GPX/1/1 http://www.topografix.com/GPX/1/1/gpx.xsd"> <!-- owner: b92e6b99554c86 --> 
<metadata>
 <name>Veliki Draški vrh (Biofit, 05.03.2026)</name> <link href="http://razmere.e-gora.si"><text>France Sevsek - razmereform.php</text></link>
 <time>2026-03-05T07:35:08Z</time><bounds maxlat="46.3613067" maxlon="13.9252400" minlat="46.3324050" minlon="13.8758333"/> 
</metadata>
 <trk>
 <name>Veliki Draški vrh (Biofit, 05.03.2026)</name> <desc><![CDATA[<p>Start time: 08:35 Mar 5, 2026<br/>Finish time: 15:55 Mar 5, 2026<br/>Distance: 13.9 km (07:20)<br/>Moving time: 03:20<br/>Average speed: 1.89 km/h<br/>Avg. Speed Mov.: 4.16 km/h<br/>Max. speed: 36.73 km/h<br/>Minimum altitude: 1308 m<br/>Maximum altitude: 2241 m<br/>Ascent speed: 237.3 m/h<br/>Descent speed: -605.5 m/h<br/>Elevation gain: 1242 m<br/>Elevation loss: -1251 m<br/>Ascent time: 05:14<br/>Descent time: 02:04<br/></p><hr align="center" width="480" style="height: 2px; width: 517px"/>]]></desc> <type>Mountain biking</type> <extensions> <om:oruxmapsextensions xmlns:om="http://www.oruxmaps.com/oruxmapsextensions/1/0"> <om:ext type="TYPE" subtype="0">6</om:ext> <om:ext type="DIFFICULTY">0</om:ext> </om:oruxmapsextensions> </extensions> <trkseg>
 <trkpt lat="46.3481650" lon="13.9252400"> <ele>1344.96</ele> <time>2026-03-05T07:35:14Z</time> </trkpt>
 <trkpt lat="46.3480167" lon="13.9250583"> <ele>1347.53</ele> <time>2026-03-05T07:36:31Z</time> </trkpt>
 <trkpt lat="46.3478367" lon="13.9249333"> <ele>1353.85</ele> <time>2026-03-05T07:36:47Z</time> </trkpt>
 <trkpt lat="46.3476483" lon="13.9249383"> <ele>1357.35</ele> <time>2026-03-05T07:37:35Z</time> </trkpt>
 <trkpt lat="46.3474350" lon="13.9248400"> <ele>1364.92</ele> <time>2026-03-05T07:37:51Z</time> </trkpt>
 <trkpt lat="46.3471300" lon="13.9246383"> <ele>1368.72</ele> <time>2026-03-05T07:38:07Z</time> </trkpt>
 <trkpt lat="46.3469283" lon="13.9245450"> <ele>1367.28</ele> <time>2026-03-05T07:38:11Z</time> </trkpt>
 <trkpt lat="46.3467300" lon="13.9245417"> <ele>1366.42</ele> <time>2026-03-05T07:38:15Z</time> </trkpt>
 <trkpt lat="46.3464317" lon="13.9245067"> <ele>1363.08</ele> <time>2026-03-05T07:38:23Z</time> </trkpt>
 <trkpt lat="46.3461117" lon="13.9244117"> <ele>1361.07</ele> <time>2026-03-05T07:38:31Z</time> </trkpt>
 <trkpt lat="46.3457767" lon="13.9243650"> <ele>1358.62</ele> <time>2026-03-05T07:38:39Z</time> </trkpt>
 <trkpt lat="46.3455317" lon="13.9244833"> <ele>1358.27</ele> <time>2026-03-05T07:38:47Z</time> </trkpt>
 <trkpt lat="46.3452283" lon="13.9246150"> <ele>1357.36</ele> <time>2026-03-05T07:38:55Z</time> </trkpt>
 <trkpt lat="46.3450250" lon="13.9246750"> <ele>1355.93</ele> <time>2026-03-05T07:39:03Z</time> </trkpt>
 <trkpt lat="46.3447867" lon="13.9246967"> <ele>1358.89</ele> <time>2026-03-05T07:39:19Z</time> </trkpt>
 <trkpt lat="46.3446117" lon="13.9245800"> <ele>1357.38</ele> <time>2026-03-05T07:39:31Z</time> </trkpt>
 <trkpt lat="46.3445433" lon="13.9243367"> <ele>1354.15</ele> <time>2026-03-05T07:39:43Z</time> </trkpt>
 <trkpt lat="46.3444050" lon="13.9238517"> <ele>1347.22</ele> <time>2026-03-05T07:40:47Z</time> </trkpt>
 <trkpt lat="46.3442550" lon="13.9235150"> <ele>1344.73</ele> <time>2026-03-05T07:40:51Z</time> </trkpt>
 <trkpt lat="46.3440817" lon="13.9232467"> <ele>1343.70</ele> <time>2026-03-05T07:40:55Z</time> </trkpt>
 <trkpt lat="46.3439483" lon="13.9230600"> <ele>1343.39</ele> <time>2026-03-05T07:40:59Z</time> </trkpt>
 <trkpt lat="46.3437383" lon="13.9227767"> <ele>1343.92</ele> <time>2026-03-05T07:41:07Z</time> </trkpt>
 <trkpt lat="46.3435583" lon="13.9225633"> <ele>1344.19</ele> <time>2026-03-05T07:41:15Z</time> </trkpt>
 <trkpt lat="46.3433217" lon="13.9223400"> <ele>1344.66</ele> <time>2026-03-05T07:41:27Z</time> </trkpt>
 <trkpt lat="46.3431617" lon="13.9222200"> <ele>1345.99</ele> <time>2026-03-05T07:41:35Z</time> </trkpt>
 <trkpt lat="46.3429783" lon="13.9221100"> <ele>1348.31</ele> <time>2026-03-05T07:41:51Z</time> </trkpt>
 <trkpt lat="46.3428067" lon="13.9219967"> <ele>1351.02</ele> <time>2026-03-05T07:42:11Z</time> </trkpt>
 <trkpt lat="46.3425800" lon="13.9218333"> <ele>1349.35</ele> <time>2026-03-05T07:42:19Z</time> </trkpt>
 <trkpt lat="46.3423317" lon="13.9217467"> <ele>1350.66</ele> <time>2026-03-05T07:42:27Z</time> </trkpt>
 <trkpt lat="46.3421367" lon="13.9216550"> <ele>1348.82</ele> <time>2026-03-05T07:42:35Z</time> </trkpt>
 <trkpt lat="46.3419167" lon="13.9215767"> <ele>1348.23</ele> <time>2026-03-05T07:42:43Z</time> </trkpt>
 <trkpt lat="46.3417117" lon="13.9215333"> <ele>1345.35</ele> <time>2026-03-05T07:42:59Z</time> </trkpt>
 <trkpt lat="46.3415150" lon="13.9214450"> <ele>1345.76</ele> <time>2026-03-05T07:43:11Z</time> </trkpt>
 <trkpt lat="46.3412767" lon="13.9213167"> <ele>1351.25</ele> <time>2026-03-05T07:43:23Z</time> </trkpt>
 <trkpt lat="46.3410400" lon="13.9210850"> <ele>1351.79</ele> <time>2026-03-05T07:43:31Z</time> </trkpt>
 <trkpt lat="46.3408400" lon="13.9208917"> <ele>1350.81</ele> <time>2026-03-05T07:43:39Z</time> </trkpt>
 <trkpt lat="46.3406400" lon="13.9207067"> <ele>1349.74</ele> <time>2026-03-05T07:43:51Z</time> </trkpt>
 <trkpt lat="46.3404650" lon="13.9205700"> <ele>1351.52</ele> <time>2026-03-05T07:43:59Z</time> </trkpt>
 <trkpt lat="46.3402217" lon="13.9204433"> <ele>1353.20</ele> <time>2026-03-05T07:44:11Z</time> </trkpt>
 <trkpt lat="46.3400417" lon="13.9203667"> <ele>1355.93</ele> <time>2026-03-05T07:44:19Z</time> </trkpt>
 <trkpt lat="46.3398650" lon="13.9202900"> <ele>1355.01</ele> <time>2026-03-05T07:44:27Z</time> </trkpt>
 <trkpt lat="46.3395483" lon="13.9202350"> <ele>1354.73</ele> <time>2026-03-05T07:44:39Z</time> </trkpt>
 <trkpt lat="46.3393267" lon="13.9201350"> <ele>1353.28</ele> <time>2026-03-05T07:44:43Z</time> </trkpt>
 <trkpt lat="46.3390600" lon="13.9200433"> <ele>1351.10</ele> <time>2026-03-05T07:44:51Z</time> </trkpt>
 <trkpt lat="46.3387933" lon="13.9198550"> <ele>1351.50</ele> <time>2026-03-05T07:44:59Z</time> </trkpt>
 <trkpt lat="46.3385783" lon="13.9197467"> <ele>1352.34</ele> <time>2026-03-05T07:45:07Z</time> </trkpt>
 <trkpt lat="46.3384233" lon="13.9196017"> <ele>1352.98</ele> <time>2026-03-05T07:45:15Z</time> </trkpt>
 <trkpt lat="46.3382233" lon="13.9193967"> <ele>1350.27</ele> <time>2026-03-05T07:45:23Z</time> </trkpt>
 <trkpt lat="46.3380617" lon="13.9191683"> <ele>1345.65</ele> <time>2026-03-05T07:46:11Z</time> </trkpt>
 <trkpt lat="46.3377983" lon="13.9188050"> <ele>1348.52</ele> <time>2026-03-05T07:46:19Z</time> </trkpt>
 <trkpt lat="46.3375583" lon="13.9187517"> <ele>1347.64</ele> <time>2026-03-05T07:46:23Z</time> </trkpt>
 <trkpt lat="46.3372967" lon="13.9186883"> <ele>1345.90</ele> <time>2026-03-05T07:46:27Z</time> </trkpt>
 <trkpt lat="46.3370483" lon="13.9184950"> <ele>1342.65</ele> <time>2026-03-05T07:46:31Z</time> </trkpt>
 <trkpt lat="46.3368350" lon="13.9182783"> <ele>1338.67</ele> <time>2026-03-05T07:46:35Z</time> </trkpt>
 <trkpt lat="46.3366800" lon="13.9180850"> <ele>1336.49</ele> <time>2026-03-05T07:46:39Z</time> </trkpt>
 <trkpt lat="46.3365333" lon="13.9179200"> <ele>1335.21</ele> <time>2026-03-05T07:46:43Z</time> </trkpt>
 <trkpt lat="46.3362967" lon="13.9177150"> <ele>1334.50</ele> <time>2026-03-05T07:46:51Z</time> </trkpt>
 <trkpt lat="46.3360833" lon="13.9176150"> <ele>1334.69</ele> <time>2026-03-05T07:46:59Z</time> </trkpt>
 <trkpt lat="46.3359000" lon="13.9175133"> <ele>1338.65</ele> <time>2026-03-05T07:47:07Z</time> </trkpt>
 <trkpt lat="46.3357100" lon="13.9173517"> <ele>1342.23</ele> <time>2026-03-05T07:47:15Z</time> </trkpt>
 <trkpt lat="46.3355367" lon="13.9172067"> <ele>1341.37</ele> <time>2026-03-05T07:47:23Z</time> </trkpt>
 <trkpt lat="46.3353400" lon="13.9170717"> <ele>1342.40</ele> <time>2026-03-05T07:47:31Z</time> </trkpt>
 <trkpt lat="46.3351250" lon="13.9170483"> <ele>1343.11</ele> <time>2026-03-05T07:47:39Z</time> </trkpt>
 <trkpt lat="46.3348833" lon="13.9170883"> <ele>1342.72</ele> <time>2026-03-05T07:47:47Z</time> </trkpt>
 <trkpt lat="46.3345983" lon="13.9170433"> <ele>1342.22</ele> <time>2026-03-05T07:47:55Z</time> </trkpt>
 <trkpt lat="46.3344133" lon="13.9169850"> <ele>1340.78</ele> <time>2026-03-05T07:47:59Z</time> </trkpt>
 <trkpt lat="46.3341917" lon="13.9168767"> <ele>1337.96</ele> <time>2026-03-05T07:48:03Z</time> </trkpt>
 <trkpt lat="46.3339867" lon="13.9167133"> <ele>1336.00</ele> <time>2026-03-05T07:48:07Z</time> </trkpt>
 <trkpt lat="46.3337800" lon="13.9165133"> <ele>1334.43</ele> <time>2026-03-05T07:48:11Z</time> </trkpt>
 <trkpt lat="46.3336300" lon="13.9163467"> <ele>1332.98</ele> <time>2026-03-05T07:48:15Z</time> </trkpt>
 <trkpt lat="46.3334417" lon="13.9161650"> <ele>1334.86</ele> <time>2026-03-05T07:48:23Z</time> </trkpt>
 <trkpt lat="46.3332917" lon="13.9159850"> <ele>1334.31</ele> <time>2026-03-05T07:48:31Z</time> </trkpt>
 <trkpt lat="46.3331433" lon="13.9157533"> <ele>1332.61</ele> <time>2026-03-05T07:48:39Z</time> </trkpt>
 <trkpt lat="46.3330400" lon="13.9154217"> <ele>1330.63</ele> <time>2026-03-05T07:48:47Z</time> </trkpt>
 <trkpt lat="46.3329650" lon="13.9150233"> <ele>1324.78</ele> <time>2026-03-05T07:48:55Z</time> </trkpt>
 <trkpt lat="46.3329017" lon="13.9147633"> <ele>1325.40</ele> <time>2026-03-05T07:49:03Z</time> </trkpt>
 <trkpt lat="46.3328483" lon="13.9145117"> <ele>1333.00</ele> <time>2026-03-05T07:49:19Z</time> </trkpt>
 <trkpt lat="46.3328067" lon="13.9141633"> <ele>1324.61</ele> <time>2026-03-05T07:50:30Z</time> </trkpt>
 <trkpt lat="46.3327250" lon="13.9137817"> <ele>1325.26</ele> <time>2026-03-05T07:50:39Z</time> </trkpt>
 <trkpt lat="46.3326200" lon="13.9134400"> <ele>1327.62</ele> <time>2026-03-05T07:50:51Z</time> </trkpt>
 <trkpt lat="46.3325283" lon="13.9130867"> <ele>1326.38</ele> <time>2026-03-05T07:50:59Z</time> </trkpt>
 <trkpt lat="46.3324217" lon="13.9126150"> <ele>1323.06</ele> <time>2026-03-05T07:51:07Z</time> </trkpt>
 <trkpt lat="46.3324050" lon="13.9123467"> <ele>1322.08</ele> <time>2026-03-05T07:51:11Z</time> </trkpt>
 <trkpt lat="46.3324383" lon="13.9120700"> <ele>1321.50</ele> <time>2026-03-05T07:51:15Z</time> </trkpt>
 <trkpt lat="46.3324650" lon="13.9118100"> <ele>1322.24</ele> <time>2026-03-05T07:51:19Z</time> </trkpt>
 <trkpt lat="46.3325517" lon="13.9115717"> <ele>1321.58</ele> <time>2026-03-05T07:51:31Z</time> </trkpt>
 <trkpt lat="46.3327117" lon="13.9111800"> <ele>1319.75</ele> <time>2026-03-05T07:51:40Z</time> </trkpt>
 <trkpt lat="46.3326083" lon="13.9108667"> <ele>1323.41</ele> <time>2026-03-05T07:51:48Z</time> </trkpt>
 <trkpt lat="46.3325350" lon="13.9104617"> <ele>1323.57</ele> <time>2026-03-05T07:51:56Z</time> </trkpt>
 <trkpt lat="46.3326850" lon="13.9100367"> <ele>1320.33</ele> <time>2026-03-05T07:52:04Z</time> </trkpt>
 <trkpt lat="46.3328533" lon="13.9097000"> <ele>1319.01</ele> <time>2026-03-05T07:52:12Z</time> </trkpt>
 <trkpt lat="46.3328933" lon="13.9092850"> <ele>1320.64</ele> <time>2026-03-05T07:52:20Z</time> </trkpt>
 <trkpt lat="46.3328500" lon="13.9089283"> <ele>1316.95</ele> <time>2026-03-05T07:52:28Z</time> </trkpt>
 <trkpt lat="46.3328200" lon="13.9085633"> <ele>1314.71</ele> <time>2026-03-05T07:52:36Z</time> </trkpt>
 <trkpt lat="46.3328350" lon="13.9082000"> <ele>1315.47</ele> <time>2026-03-05T07:52:44Z</time> </trkpt>
 <trkpt lat="46.3328383" lon="13.9078650"> <ele>1316.82</ele> <time>2026-03-05T07:52:52Z</time> </trkpt>
 <trkpt lat="46.3328733" lon="13.9075667"> <ele>1318.95</ele> <time>2026-03-05T07:53:00Z</time> </trkpt>
 <trkpt lat="46.3329067" lon="13.9072917"> <ele>1320.89</ele> <time>2026-03-05T07:53:08Z</time> </trkpt>
 <trkpt lat="46.3330367" lon="13.9070500"> <ele>1319.38</ele> <time>2026-03-05T07:53:16Z</time> </trkpt>
 <trkpt lat="46.3331917" lon="13.9068450"> <ele>1321.36</ele> <time>2026-03-05T07:53:24Z</time> </trkpt>
 <trkpt lat="46.3333517" lon="13.9066233"> <ele>1319.19</ele> <time>2026-03-05T07:53:32Z</time> </trkpt>
 <trkpt lat="46.3335483" lon="13.9064033"> <ele>1315.79</ele> <time>2026-03-05T07:53:40Z</time> </trkpt>
 <trkpt lat="46.3337717" lon="13.9061883"> <ele>1312.82</ele> <time>2026-03-05T07:53:48Z</time> </trkpt>
 <trkpt lat="46.3339717" lon="13.9059833"> <ele>1309.94</ele> <time>2026-03-05T07:53:56Z</time> </trkpt>
 <trkpt lat="46.3341750" lon="13.9058067"> <ele>1309.80</ele> <time>2026-03-05T07:54:04Z</time> </trkpt>
 <trkpt lat="46.3343600" lon="13.9056467"> <ele>1309.26</ele> <time>2026-03-05T07:54:12Z</time> </trkpt>
 <trkpt lat="46.3345217" lon="13.9054967"> <ele>1309.45</ele> <time>2026-03-05T07:54:20Z</time> </trkpt>
 <trkpt lat="46.3347100" lon="13.9053533"> <ele>1308.86</ele> <time>2026-03-05T07:54:28Z</time> </trkpt>
 <trkpt lat="46.3349183" lon="13.9052183"> <ele>1317.94</ele> <time>2026-03-05T07:54:40Z</time> </trkpt>
 <trkpt lat="46.3350950" lon="13.9051667"> <ele>1318.96</ele> <time>2026-03-05T07:54:48Z</time> </trkpt>
 <trkpt lat="46.3352733" lon="13.9050917"> <ele>1316.17</ele> <time>2026-03-05T08:03:20Z</time> </trkpt>
 <trkpt lat="46.3354733" lon="13.9049933"> <ele>1311.25</ele> <time>2026-03-05T08:03:48Z</time> </trkpt>
 <trkpt lat="46.3356483" lon="13.9048867"> <ele>1313.12</ele> <time>2026-03-05T08:04:08Z</time> </trkpt>
 <trkpt lat="46.3358400" lon="13.9047983"> <ele>1310.39</ele> <time>2026-03-05T08:04:28Z</time> </trkpt>
 <trkpt lat="46.3360450" lon="13.9047700"> <ele>1311.53</ele> <time>2026-03-05T08:04:48Z</time> </trkpt>
 <trkpt lat="46.3362467" lon="13.9047400"> <ele>1312.24</ele> <time>2026-03-05T08:05:08Z</time> </trkpt>
 <trkpt lat="46.3364267" lon="13.9047250"> <ele>1310.95</ele> <time>2026-03-05T08:05:24Z</time> </trkpt>
 <trkpt lat="46.3366367" lon="13.9046833"> <ele>1308.70</ele> <time>2026-03-05T08:05:48Z</time> </trkpt>
 <trkpt lat="46.3368300" lon="13.9046550"> <ele>1309.55</ele> <time>2026-03-05T08:06:08Z</time> </trkpt>
 <trkpt lat="46.3370100" lon="13.9046400"> <ele>1310.40</ele> <time>2026-03-05T08:06:24Z</time> </trkpt>
 <trkpt lat="46.3372217" lon="13.9046150"> <ele>1308.78</ele> <time>2026-03-05T08:06:48Z</time> </trkpt>
 <trkpt lat="46.3374100" lon="13.9045783"> <ele>1311.04</ele> <time>2026-03-05T08:07:08Z</time> </trkpt>
 <trkpt lat="46.3375883" lon="13.9045417"> <ele>1310.31</ele> <time>2026-03-05T08:07:28Z</time> </trkpt>
 <trkpt lat="46.3377867" lon="13.9045217"> <ele>1309.63</ele> <time>2026-03-05T08:07:48Z</time> </trkpt>
 <trkpt lat="46.3379900" lon="13.9044850"> <ele>1312.46</ele> <time>2026-03-05T08:08:12Z</time> </trkpt>
 <trkpt lat="46.3381800" lon="13.9044667"> <ele>1311.99</ele> <time>2026-03-05T08:08:32Z</time> </trkpt>
 <trkpt lat="46.3383633" lon="13.9045050"> <ele>1312.30</ele> <time>2026-03-05T08:08:52Z</time> </trkpt>
 <trkpt lat="46.3385717" lon="13.9044933"> <ele>1314.49</ele> <time>2026-03-05T08:09:16Z</time> </trkpt>
 <trkpt lat="46.3387900" lon="13.9045683"> <ele>1314.30</ele> <time>2026-03-05T08:09:52Z</time> </trkpt>
 <trkpt lat="46.3389567" lon="13.9047117"> <ele>1314.25</ele> <time>2026-03-05T08:10:07Z</time> </trkpt>
 <trkpt lat="46.3391433" lon="13.9047933"> <ele>1312.58</ele> <time>2026-03-05T08:10:23Z</time> </trkpt>
 <trkpt lat="46.3393433" lon="13.9047717"> <ele>1316.38</ele> <time>2026-03-05T08:10:43Z</time> </trkpt>
 <trkpt lat="46.3395500" lon="13.9047783"> <ele>1315.61</ele> <time>2026-03-05T08:11:07Z</time> </trkpt>
 <trkpt lat="46.3397417" lon="13.9048467"> <ele>1320.83</ele> <time>2026-03-05T08:11:34Z</time> </trkpt>
 <trkpt lat="46.3399300" lon="13.9049133"> <ele>1327.91</ele> <time>2026-03-05T08:12:06Z</time> </trkpt>
 <trkpt lat="46.3400917" lon="13.9050317"> <ele>1325.01</ele> <time>2026-03-05T08:13:14Z</time> </trkpt>
 <trkpt lat="46.3401917" lon="13.9052483"> <ele>1330.28</ele> <time>2026-03-05T08:13:38Z</time> </trkpt>
 <trkpt lat="46.3403183" lon="13.9054867"> <ele>1334.47</ele> <time>2026-03-05T08:14:06Z</time> </trkpt>
 <trkpt lat="46.3401733" lon="13.9056567"> <ele>1339.55</ele> <time>2026-03-05T08:14:50Z</time> </trkpt>
 <trkpt lat="46.3401167" lon="13.9059233"> <ele>1335.30</ele> <time>2026-03-05T08:16:02Z</time> </trkpt>
 <trkpt lat="46.3402767" lon="13.9060500"> <ele>1344.00</ele> <time>2026-03-05T08:17:10Z</time> </trkpt>
 <trkpt lat="46.3404400" lon="13.9061867"> <ele>1345.36</ele> <time>2026-03-05T08:17:38Z</time> </trkpt>
 <trkpt lat="46.3406467" lon="13.9062850"> <ele>1348.83</ele> <time>2026-03-05T08:18:18Z</time> </trkpt>
 <trkpt lat="46.3408533" lon="13.9062883"> <ele>1352.52</ele> <time>2026-03-05T08:18:38Z</time> </trkpt>
 <trkpt lat="46.3410567" lon="13.9062883"> <ele>1354.25</ele> <time>2026-03-05T08:19:01Z</time> </trkpt>
 <trkpt lat="46.3412850" lon="13.9062483"> <ele>1356.52</ele> <time>2026-03-05T08:19:29Z</time> </trkpt>
 <trkpt lat="46.3414800" lon="13.9061583"> <ele>1357.23</ele> <time>2026-03-05T08:19:57Z</time> </trkpt>
 <trkpt lat="46.3416700" lon="13.9061283"> <ele>1355.66</ele> <time>2026-03-05T08:20:25Z</time> </trkpt>
 <trkpt lat="46.3418650" lon="13.9061233"> <ele>1356.60</ele> <time>2026-03-05T08:20:53Z</time> </trkpt>
 <trkpt lat="46.3420517" lon="13.9061550"> <ele>1356.13</ele> <time>2026-03-05T08:21:09Z</time> </trkpt>
 <trkpt lat="46.3422533" lon="13.9062300"> <ele>1361.52</ele> <time>2026-03-05T08:21:33Z</time> </trkpt>
 <trkpt lat="46.3424300" lon="13.9061800"> <ele>1360.77</ele> <time>2026-03-05T08:22:01Z</time> </trkpt>
 <trkpt lat="46.3426200" lon="13.9061083"> <ele>1365.82</ele> <time>2026-03-05T08:22:29Z</time> </trkpt>
 <trkpt lat="46.3428117" lon="13.9060500"> <ele>1369.81</ele> <time>2026-03-05T08:23:01Z</time> </trkpt>
 <trkpt lat="46.3429700" lon="13.9058350"> <ele>1376.61</ele> <time>2026-03-05T08:23:33Z</time> </trkpt>
 <trkpt lat="46.3431400" lon="13.9056933"> <ele>1378.21</ele> <time>2026-03-05T08:24:01Z</time> </trkpt>
 <trkpt lat="46.3433200" lon="13.9055267"> <ele>1382.19</ele> <time>2026-03-05T08:24:29Z</time> </trkpt>
 <trkpt lat="46.3435150" lon="13.9054817"> <ele>1377.93</ele> <time>2026-03-05T08:24:53Z</time> </trkpt>
 <trkpt lat="46.3437150" lon="13.9055250"> <ele>1379.44</ele> <time>2026-03-05T08:25:21Z</time> </trkpt>
 <trkpt lat="46.3438950" lon="13.9054300"> <ele>1383.80</ele> <time>2026-03-05T08:25:53Z</time> </trkpt>
 <trkpt lat="46.3439450" lon="13.9051600"> <ele>1396.15</ele> <time>2026-03-05T08:26:25Z</time> </trkpt>
 <trkpt lat="46.3440617" lon="13.9049483"> <ele>1393.36</ele> <time>2026-03-05T08:26:49Z</time> </trkpt>
 <trkpt lat="46.3442317" lon="13.9047950"> <ele>1382.24</ele> <time>2026-03-05T08:27:05Z</time> </trkpt>
 <trkpt lat="46.3443500" lon="13.9045883"> <ele>1381.05</ele> <time>2026-03-05T08:27:25Z</time> </trkpt>
 <trkpt lat="46.3444183" lon="13.9042833"> <ele>1387.32</ele> <time>2026-03-05T08:27:49Z</time> </trkpt>
 <trkpt lat="46.3445067" lon="13.9040550"> <ele>1384.78</ele> <time>2026-03-05T08:28:09Z</time> </trkpt>
 <trkpt lat="46.3445933" lon="13.9038100"> <ele>1387.79</ele> <time>2026-03-05T08:28:29Z</time> </trkpt>
 <trkpt lat="46.3446883" lon="13.9035817"> <ele>1392.66</ele> <time>2026-03-05T08:28:53Z</time> </trkpt>
 <trkpt lat="46.3448133" lon="13.9033717"> <ele>1398.24</ele> <time>2026-03-05T08:29:17Z</time> </trkpt>
 <trkpt lat="46.3449167" lon="13.9031533"> <ele>1398.31</ele> <time>2026-03-05T08:29:41Z</time> </trkpt>
 <trkpt lat="46.3450217" lon="13.9028950"> <ele>1400.05</ele> <time>2026-03-05T08:30:01Z</time> </trkpt>
 <trkpt lat="46.3451050" lon="13.9026500"> <ele>1400.07</ele> <time>2026-03-05T08:30:21Z</time> </trkpt>
 <trkpt lat="46.3451900" lon="13.9024050"> <ele>1401.59</ele> <time>2026-03-05T08:30:41Z</time> </trkpt>
 <trkpt lat="46.3452633" lon="13.9021633"> <ele>1404.48</ele> <time>2026-03-05T08:31:01Z</time> </trkpt>
 <trkpt lat="46.3454000" lon="13.9019817"> <ele>1402.58</ele> <time>2026-03-05T08:31:21Z</time> </trkpt>
 <trkpt lat="46.3455517" lon="13.9018167"> <ele>1407.02</ele> <time>2026-03-05T08:32:01Z</time> </trkpt>
 <trkpt lat="46.3456217" lon="13.9015517"> <ele>1410.32</ele> <time>2026-03-05T08:32:29Z</time> </trkpt>
 <trkpt lat="46.3457117" lon="13.9013150"> <ele>1410.21</ele> <time>2026-03-05T08:33:01Z</time> </trkpt>
 <trkpt lat="46.3458183" lon="13.9010800"> <ele>1407.23</ele> <time>2026-03-05T08:33:25Z</time> </trkpt>
 <trkpt lat="46.3458483" lon="13.9008200"> <ele>1409.57</ele> <time>2026-03-05T08:33:53Z</time> </trkpt>
 <trkpt lat="46.3459033" lon="13.9005233"> <ele>1413.76</ele> <time>2026-03-05T08:34:21Z</time> </trkpt>
 <trkpt lat="46.3460083" lon="13.9002683"> <ele>1412.84</ele> <time>2026-03-05T08:34:45Z</time> </trkpt>
 <trkpt lat="46.3460600" lon="13.8999567"> <ele>1417.85</ele> <time>2026-03-05T08:35:13Z</time> </trkpt>
 <trkpt lat="46.3462167" lon="13.8998050"> <ele>1409.59</ele> <time>2026-03-05T08:35:37Z</time> </trkpt>
 <trkpt lat="46.3463850" lon="13.8996883"> <ele>1409.34</ele> <time>2026-03-05T08:36:01Z</time> </trkpt>
 <trkpt lat="46.3465517" lon="13.8995400"> <ele>1406.31</ele> <time>2026-03-05T08:37:05Z</time> </trkpt>
 <trkpt lat="46.3466650" lon="13.8993283"> <ele>1411.06</ele> <time>2026-03-05T08:37:49Z</time> </trkpt>
 <trkpt lat="46.3468250" lon="13.8991850"> <ele>1417.83</ele> <time>2026-03-05T08:38:29Z</time> </trkpt>
 <trkpt lat="46.3467750" lon="13.8989267"> <ele>1418.01</ele> <time>2026-03-05T08:40:05Z</time> </trkpt>
 <trkpt lat="46.3468700" lon="13.8986967"> <ele>1420.74</ele> <time>2026-03-05T08:40:49Z</time> </trkpt>
 <trkpt lat="46.3470500" lon="13.8986217"> <ele>1417.46</ele> <time>2026-03-05T08:45:47Z</time> </trkpt>
 <trkpt lat="46.3472183" lon="13.8985050"> <ele>1424.00</ele> <time>2026-03-05T08:47:11Z</time> </trkpt>
 <trkpt lat="46.3474117" lon="13.8984767"> <ele>1428.83</ele> <time>2026-03-05T08:47:39Z</time> </trkpt>
 <trkpt lat="46.3475667" lon="13.8983200"> <ele>1434.21</ele> <time>2026-03-05T08:48:47Z</time> </trkpt>
 <trkpt lat="46.3477483" lon="13.8982383"> <ele>1437.97</ele> <time>2026-03-05T08:49:31Z</time> </trkpt>
 <trkpt lat="46.3479000" lon="13.8980900"> <ele>1441.27</ele> <time>2026-03-05T08:51:27Z</time> </trkpt>
 <trkpt lat="46.3480617" lon="13.8979167"> <ele>1440.39</ele> <time>2026-03-05T08:52:11Z</time> </trkpt>
 <trkpt lat="46.3482017" lon="13.8977267"> <ele>1437.36</ele> <time>2026-03-05T08:54:03Z</time> </trkpt>
 <trkpt lat="46.3483217" lon="13.8975300"> <ele>1439.74</ele> <time>2026-03-05T08:54:23Z</time> </trkpt>
 <trkpt lat="46.3484600" lon="13.8973600"> <ele>1441.23</ele> <time>2026-03-05T08:54:43Z</time> </trkpt>
 <trkpt lat="46.3485817" lon="13.8971317"> <ele>1443.80</ele> <time>2026-03-05T08:55:07Z</time> </trkpt>
 <trkpt lat="46.3487633" lon="13.8970550"> <ele>1441.83</ele> <time>2026-03-05T08:55:27Z</time> </trkpt>
 <trkpt lat="46.3489400" lon="13.8971383"> <ele>1442.05</ele> <time>2026-03-05T08:55:59Z</time> </trkpt>
 <trkpt lat="46.3491250" lon="13.8971067"> <ele>1444.16</ele> <time>2026-03-05T08:56:27Z</time> </trkpt>
 <trkpt lat="46.3493200" lon="13.8970767"> <ele>1446.26</ele> <time>2026-03-05T08:57:15Z</time> </trkpt>
 <trkpt lat="46.3494983" lon="13.8969917"> <ele>1447.76</ele> <time>2026-03-05T08:57:39Z</time> </trkpt>
 <trkpt lat="46.3496700" lon="13.8968717"> <ele>1451.81</ele> <time>2026-03-05T08:58:07Z</time> </trkpt>
 <trkpt lat="46.3498117" lon="13.8966667"> <ele>1455.88</ele> <time>2026-03-05T08:58:59Z</time> </trkpt>
 <trkpt lat="46.3499200" lon="13.8964183"> <ele>1456.47</ele> <time>2026-03-05T08:59:27Z</time> </trkpt>
 <trkpt lat="46.3500283" lon="13.8961750"> <ele>1458.73</ele> <time>2026-03-05T08:59:59Z</time> </trkpt>
 <trkpt lat="46.3501433" lon="13.8959300"> <ele>1461.57</ele> <time>2026-03-05T09:00:31Z</time> </trkpt>
 <trkpt lat="46.3502750" lon="13.8957433"> <ele>1464.07</ele> <time>2026-03-05T09:00:59Z</time> </trkpt>
 <trkpt lat="46.3504167" lon="13.8955733"> <ele>1466.45</ele> <time>2026-03-05T09:01:27Z</time> </trkpt>
 <trkpt lat="46.3505583" lon="13.8953983"> <ele>1470.38</ele> <time>2026-03-05T09:01:55Z</time> </trkpt>
 <trkpt lat="46.3507083" lon="13.8952350"> <ele>1469.68</ele> <time>2026-03-05T09:02:23Z</time> </trkpt>
 <trkpt lat="46.3508783" lon="13.8950750"> <ele>1471.48</ele> <time>2026-03-05T09:02:55Z</time> </trkpt>
 <trkpt lat="46.3510417" lon="13.8949433"> <ele>1471.89</ele> <time>2026-03-05T09:03:43Z</time> </trkpt>
 <trkpt lat="46.3512333" lon="13.8948050"> <ele>1471.92</ele> <time>2026-03-05T09:04:11Z</time> </trkpt>
 <trkpt lat="46.3513933" lon="13.8946383"> <ele>1475.97</ele> <time>2026-03-05T09:04:39Z</time> </trkpt>
 <trkpt lat="46.3515750" lon="13.8945050"> <ele>1479.26</ele> <time>2026-03-05T09:05:15Z</time> </trkpt>
 <trkpt lat="46.3517450" lon="13.8943333"> <ele>1479.80</ele> <time>2026-03-05T09:05:47Z</time> </trkpt>
 <trkpt lat="46.3518800" lon="13.8941467"> <ele>1484.59</ele> <time>2026-03-05T09:06:19Z</time> </trkpt>
 <trkpt lat="46.3520133" lon="13.8939417"> <ele>1490.64</ele> <time>2026-03-05T09:07:27Z</time> </trkpt>
 <trkpt lat="46.3521500" lon="13.8937567"> <ele>1500.50</ele> <time>2026-03-05T09:08:07Z</time> </trkpt>
 <trkpt lat="46.3521567" lon="13.8934683"> <ele>1508.40</ele> <time>2026-03-05T09:08:39Z</time> </trkpt>
 <trkpt lat="46.3521133" lon="13.8932133"> <ele>1508.43</ele> <time>2026-03-05T09:09:07Z</time> </trkpt>
 <trkpt lat="46.3522450" lon="13.8929967"> <ele>1508.10</ele> <time>2026-03-05T09:09:39Z</time> </trkpt>
 <trkpt lat="46.3523267" lon="13.8927317"> <ele>1519.66</ele> <time>2026-03-05T09:10:19Z</time> </trkpt>
 <trkpt lat="46.3524100" lon="13.8924683"> <ele>1521.38</ele> <time>2026-03-05T09:11:07Z</time> </trkpt>
 <trkpt lat="46.3524917" lon="13.8922317"> <ele>1526.55</ele> <time>2026-03-05T09:11:51Z</time> </trkpt>
 <trkpt lat="46.3524300" lon="13.8919850"> <ele>1526.43</ele> <time>2026-03-05T09:16:03Z</time> </trkpt>
 <trkpt lat="46.3525667" lon="13.8917967"> <ele>1538.63</ele> <time>2026-03-05T09:16:35Z</time> </trkpt>
 <trkpt lat="46.3527167" lon="13.8916517"> <ele>1542.74</ele> <time>2026-03-05T09:17:11Z</time> </trkpt>
 <trkpt lat="46.3528467" lon="13.8914700"> <ele>1549.17</ele> <time>2026-03-05T09:17:47Z</time> </trkpt>
 <trkpt lat="46.3529650" lon="13.8912733"> <ele>1554.65</ele> <time>2026-03-05T09:18:27Z</time> </trkpt>
 <trkpt lat="46.3529617" lon="13.8909917"> <ele>1559.74</ele> <time>2026-03-05T09:19:07Z</time> </trkpt>
 <trkpt lat="46.3529083" lon="13.8907283"> <ele>1568.96</ele> <time>2026-03-05T09:19:59Z</time> </trkpt>
 <trkpt lat="46.3529017" lon="13.8904667"> <ele>1574.57</ele> <time>2026-03-05T09:20:40Z</time> </trkpt>
 <trkpt lat="46.3529350" lon="13.8902067"> <ele>1580.64</ele> <time>2026-03-05T09:21:28Z</time> </trkpt>
 <trkpt lat="46.3528700" lon="13.8899600"> <ele>1587.81</ele> <time>2026-03-05T09:22:12Z</time> </trkpt>
 <trkpt lat="46.3528517" lon="13.8896917"> <ele>1598.63</ele> <time>2026-03-05T09:22:56Z</time> </trkpt>
 <trkpt lat="46.3529367" lon="13.8894317"> <ele>1604.43</ele> <time>2026-03-05T09:23:48Z</time> </trkpt>
 <trkpt lat="46.3531233" lon="13.8894150"> <ele>1605.34</ele> <time>2026-03-05T09:24:36Z</time> </trkpt>
 <trkpt lat="46.3532617" lon="13.8892483"> <ele>1616.86</ele> <time>2026-03-05T09:25:52Z</time> </trkpt>
 <trkpt lat="46.3534450" lon="13.8891617"> <ele>1626.11</ele> <time>2026-03-05T09:27:00Z</time> </trkpt>
 <trkpt lat="46.3536250" lon="13.8891300"> <ele>1627.55</ele> <time>2026-03-05T09:27:48Z</time> </trkpt>
 <trkpt lat="46.3538017" lon="13.8890383"> <ele>1633.92</ele> <time>2026-03-05T09:29:44Z</time> </trkpt>
 <trkpt lat="46.3539967" lon="13.8890333"> <ele>1640.81</ele> <time>2026-03-05T09:30:28Z</time> </trkpt>
 <trkpt lat="46.3541850" lon="13.8891167"> <ele>1648.31</ele> <time>2026-03-05T09:31:08Z</time> </trkpt>
 <trkpt lat="46.3543667" lon="13.8891900"> <ele>1653.29</ele> <time>2026-03-05T09:32:08Z</time> </trkpt>
 <trkpt lat="46.3545483" lon="13.8893283"> <ele>1655.31</ele> <time>2026-03-05T09:33:00Z</time> </trkpt>
 <trkpt lat="46.3547283" lon="13.8894567"> <ele>1659.01</ele> <time>2026-03-05T09:33:24Z</time> </trkpt>
 <trkpt lat="46.3549133" lon="13.8895700"> <ele>1657.66</ele> <time>2026-03-05T09:33:48Z</time> </trkpt>
 <trkpt lat="46.3551100" lon="13.8896217"> <ele>1658.63</ele> <time>2026-03-05T09:34:20Z</time> </trkpt>
 <trkpt lat="46.3552817" lon="13.8897350"> <ele>1688.62</ele> <time>2026-03-05T09:35:10Z</time> </trkpt>
 <trkpt lat="46.3554733" lon="13.8897567"> <ele>1659.46</ele> <time>2026-03-05T09:36:54Z</time> </trkpt>
 <trkpt lat="46.3556283" lon="13.8898967"> <ele>1664.46</ele> <time>2026-03-05T09:37:22Z</time> </trkpt>
 <trkpt lat="46.3557700" lon="13.8897317"> <ele>1673.44</ele> <time>2026-03-05T09:38:30Z</time> </trkpt>
 <trkpt lat="46.3558600" lon="13.8894850"> <ele>1679.44</ele> <time>2026-03-05T09:39:22Z</time> </trkpt>
 <trkpt lat="46.3560533" lon="13.8894483"> <ele>1681.72</ele> <time>2026-03-05T09:39:54Z</time> </trkpt>
 <trkpt lat="46.3562483" lon="13.8894417"> <ele>1685.21</ele> <time>2026-03-05T09:40:34Z</time> </trkpt>
 <trkpt lat="46.3564517" lon="13.8894233"> <ele>1692.22</ele> <time>2026-03-05T09:41:22Z</time> </trkpt>
 <trkpt lat="46.3566300" lon="13.8893117"> <ele>1695.18</ele> <time>2026-03-05T09:41:54Z</time> </trkpt>
 <trkpt lat="46.3567833" lon="13.8891567"> <ele>1700.69</ele> <time>2026-03-05T09:42:22Z</time> </trkpt>
 <trkpt lat="46.3569317" lon="13.8889683"> <ele>1703.09</ele> <time>2026-03-05T09:43:18Z</time> </trkpt>
 <trkpt lat="46.3571033" lon="13.8888333"> <ele>1708.90</ele> <time>2026-03-05T09:43:54Z</time> </trkpt>
 <trkpt lat="46.3572900" lon="13.8888400"> <ele>1710.86</ele> <time>2026-03-05T09:44:30Z</time> </trkpt>
 <trkpt lat="46.3574667" lon="13.8887717"> <ele>1715.15</ele> <time>2026-03-05T09:45:06Z</time> </trkpt>
 <trkpt lat="46.3575133" lon="13.8884917"> <ele>1725.55</ele> <time>2026-03-05T09:51:35Z</time> </trkpt>
 <trkpt lat="46.3575233" lon="13.8882267"> <ele>1723.59</ele> <time>2026-03-05T09:51:59Z</time> </trkpt>
 <trkpt lat="46.3575500" lon="13.8879600"> <ele>1722.45</ele> <time>2026-03-05T09:52:23Z</time> </trkpt>
 <trkpt lat="46.3575617" lon="13.8876617"> <ele>1719.07</ele> <time>2026-03-05T09:52:51Z</time> </trkpt>
 <trkpt lat="46.3575383" lon="13.8873950"> <ele>1720.78</ele> <time>2026-03-05T09:53:15Z</time> </trkpt>
 <trkpt lat="46.3575217" lon="13.8871300"> <ele>1723.33</ele> <time>2026-03-05T09:53:39Z</time> </trkpt>
 <trkpt lat="46.3574583" lon="13.8868417"> <ele>1720.59</ele> <time>2026-03-05T09:54:07Z</time> </trkpt>
 <trkpt lat="46.3573483" lon="13.8865883"> <ele>1722.73</ele> <time>2026-03-05T09:54:39Z</time> </trkpt>
 <trkpt lat="46.3571900" lon="13.8863983"> <ele>1730.88</ele> <time>2026-03-05T09:55:07Z</time> </trkpt>
 <trkpt lat="46.3570300" lon="13.8862250"> <ele>1739.71</ele> <time>2026-03-05T09:55:55Z</time> </trkpt>
 <trkpt lat="46.3568817" lon="13.8860583"> <ele>1743.54</ele> <time>2026-03-05T09:56:31Z</time> </trkpt>
 <trkpt lat="46.3567267" lon="13.8858883"> <ele>1747.99</ele> <time>2026-03-05T09:57:07Z</time> </trkpt>
 <trkpt lat="46.3565683" lon="13.8857083"> <ele>1754.71</ele> <time>2026-03-05T09:57:47Z</time> </trkpt>
 <trkpt lat="46.3564150" lon="13.8855283"> <ele>1757.75</ele> <time>2026-03-05T09:58:23Z</time> </trkpt>
 <trkpt lat="46.3562550" lon="13.8853667"> <ele>1762.31</ele> <time>2026-03-05T09:59:03Z</time> </trkpt>
 <trkpt lat="46.3561233" lon="13.8851600"> <ele>1772.06</ele> <time>2026-03-05T09:59:47Z</time> </trkpt>
 <trkpt lat="46.3559967" lon="13.8849467"> <ele>1779.57</ele> <time>2026-03-05T10:00:35Z</time> </trkpt>
 <trkpt lat="46.3558900" lon="13.8847233"> <ele>1787.09</ele> <time>2026-03-05T10:01:23Z</time> </trkpt>
 <trkpt lat="46.3557850" lon="13.8845117"> <ele>1794.94</ele> <time>2026-03-05T10:02:15Z</time> </trkpt>
 <trkpt lat="46.3556633" lon="13.8843083"> <ele>1798.36</ele> <time>2026-03-05T10:03:11Z</time> </trkpt>
 <trkpt lat="46.3555033" lon="13.8841800"> <ele>1806.65</ele> <time>2026-03-05T10:04:07Z</time> </trkpt>
 <trkpt lat="46.3554567" lon="13.8839150"> <ele>1815.49</ele> <time>2026-03-05T10:05:51Z</time> </trkpt>
 <trkpt lat="46.3553967" lon="13.8836633"> <ele>1821.37</ele> <time>2026-03-05T10:06:47Z</time> </trkpt>
 <trkpt lat="46.3553917" lon="13.8833967"> <ele>1827.81</ele> <time>2026-03-05T10:07:27Z</time> </trkpt>
 <trkpt lat="46.3553750" lon="13.8831333"> <ele>1834.15</ele> <time>2026-03-05T10:08:07Z</time> </trkpt>
 <trkpt lat="46.3552933" lon="13.8828950"> <ele>1842.43</ele> <time>2026-03-05T10:08:59Z</time> </trkpt>
 <trkpt lat="46.3553333" lon="13.8826317"> <ele>1845.42</ele> <time>2026-03-05T10:10:03Z</time> </trkpt>
 <trkpt lat="46.3554133" lon="13.8823833"> <ele>1855.69</ele> <time>2026-03-05T10:10:51Z</time> </trkpt>
 <trkpt lat="46.3553133" lon="13.8821417"> <ele>1858.30</ele> <time>2026-03-05T10:15:21Z</time> </trkpt>
 <trkpt lat="46.3553050" lon="13.8818800"> <ele>1868.32</ele> <time>2026-03-05T10:16:13Z</time> </trkpt>
 <trkpt lat="46.3552433" lon="13.8816317"> <ele>1885.99</ele> <time>2026-03-05T10:17:29Z</time> </trkpt>
 <trkpt lat="46.3553817" lon="13.8814567"> <ele>1893.12</ele> <time>2026-03-05T10:18:33Z</time> </trkpt>
 <trkpt lat="46.3555600" lon="13.8813700"> <ele>1900.66</ele> <time>2026-03-05T10:19:21Z</time> </trkpt>
 <trkpt lat="46.3557483" lon="13.8813867"> <ele>1904.43</ele> <time>2026-03-05T10:21:33Z</time> </trkpt>
 <trkpt lat="46.3559450" lon="13.8813000"> <ele>1905.87</ele> <time>2026-03-05T10:22:01Z</time> </trkpt>
 <trkpt lat="46.3558733" lon="13.8809867"> <ele>1925.06</ele> <time>2026-03-05T10:24:49Z</time> </trkpt>
 <trkpt lat="46.3560133" lon="13.8808050"> <ele>1926.90</ele> <time>2026-03-05T10:32:16Z</time> </trkpt>
 <trkpt lat="46.3561800" lon="13.8806450"> <ele>1935.01</ele> <time>2026-03-05T10:32:56Z</time> </trkpt>
 <trkpt lat="46.3563433" lon="13.8804833"> <ele>1938.57</ele> <time>2026-03-05T10:33:28Z</time> </trkpt>
 <trkpt lat="46.3565100" lon="13.8803650"> <ele>1940.57</ele> <time>2026-03-05T10:34:00Z</time> </trkpt>
 <trkpt lat="46.3566733" lon="13.8802083"> <ele>1945.89</ele> <time>2026-03-05T10:34:40Z</time> </trkpt>
 <trkpt lat="46.3568717" lon="13.8801200"> <ele>1950.60</ele> <time>2026-03-05T10:35:28Z</time> </trkpt>
 <trkpt lat="46.3568667" lon="13.8798267"> <ele>1959.16</ele> <time>2026-03-05T10:36:32Z</time> </trkpt>
 <trkpt lat="46.3567283" lon="13.8796300"> <ele>1969.14</ele> <time>2026-03-05T10:37:16Z</time> </trkpt>
 <trkpt lat="46.3568333" lon="13.8793967"> <ele>1970.89</ele> <time>2026-03-05T10:43:23Z</time> </trkpt>
 <trkpt lat="46.3570050" lon="13.8793167"> <ele>1973.98</ele> <time>2026-03-05T10:43:55Z</time> </trkpt>
 <trkpt lat="46.3571883" lon="13.8793500"> <ele>1978.38</ele> <time>2026-03-05T10:44:51Z</time> </trkpt>
 <trkpt lat="46.3573933" lon="13.8794433"> <ele>1985.85</ele> <time>2026-03-05T10:46:11Z</time> </trkpt>
 <trkpt lat="46.3575617" lon="13.8795417"> <ele>1995.75</ele> <time>2026-03-05T10:47:27Z</time> </trkpt>
 <trkpt lat="46.3577517" lon="13.8794883"> <ele>2003.21</ele> <time>2026-03-05T10:48:27Z</time> </trkpt>
 <trkpt lat="46.3579333" lon="13.8795233"> <ele>2008.78</ele> <time>2026-03-05T10:49:15Z</time> </trkpt>
 <trkpt lat="46.3581133" lon="13.8795550"> <ele>2029.87</ele> <time>2026-03-05T10:51:31Z</time> </trkpt>
 <trkpt lat="46.3583067" lon="13.8796033"> <ele>2029.72</ele> <time>2026-03-05T10:52:47Z</time> </trkpt>
 <trkpt lat="46.3584867" lon="13.8795717"> <ele>2037.57</ele> <time>2026-03-05T10:53:55Z</time> </trkpt>
 <trkpt lat="46.3586783" lon="13.8795583"> <ele>2042.14</ele> <time>2026-03-05T10:54:39Z</time> </trkpt>
 <trkpt lat="46.3588783" lon="13.8795150"> <ele>2053.22</ele> <time>2026-03-05T10:55:47Z</time> </trkpt>
 <trkpt lat="46.3590500" lon="13.8794083"> <ele>2059.35</ele> <time>2026-03-05T10:57:15Z</time> </trkpt>
 <trkpt lat="46.3592383" lon="13.8793783"> <ele>2063.04</ele> <time>2026-03-05T10:58:07Z</time> </trkpt>
 <trkpt lat="46.3593267" lon="13.8791383"> <ele>2076.08</ele> <time>2026-03-05T10:59:59Z</time> </trkpt>
 <trkpt lat="46.3592367" lon="13.8788967"> <ele>2074.03</ele> <time>2026-03-05T11:13:48Z</time> </trkpt>
 <trkpt lat="46.3591433" lon="13.8786083"> <ele>2088.65</ele> <time>2026-03-05T11:14:48Z</time> </trkpt>
 <trkpt lat="46.3590417" lon="13.8783800"> <ele>2091.66</ele> <time>2026-03-05T11:15:24Z</time> </trkpt>
 <trkpt lat="46.3589267" lon="13.8781683"> <ele>2097.74</ele> <time>2026-03-05T11:16:28Z</time> </trkpt>
 <trkpt lat="46.3590967" lon="13.8780433"> <ele>2109.55</ele> <time>2026-03-05T11:18:12Z</time> </trkpt>
 <trkpt lat="46.3592783" lon="13.8779983"> <ele>2113.29</ele> <time>2026-03-05T11:18:52Z</time> </trkpt>
 <trkpt lat="46.3594600" lon="13.8779633"> <ele>2122.17</ele> <time>2026-03-05T11:19:44Z</time> </trkpt>
 <trkpt lat="46.3596617" lon="13.8779200"> <ele>2127.80</ele> <time>2026-03-05T11:20:40Z</time> </trkpt>
 <trkpt lat="46.3598483" lon="13.8778833"> <ele>2135.16</ele> <time>2026-03-05T11:21:24Z</time> </trkpt>
 <trkpt lat="46.3598317" lon="13.8776167"> <ele>2143.86</ele> <time>2026-03-05T11:23:16Z</time> </trkpt>
 <trkpt lat="46.3597167" lon="13.8774083"> <ele>2151.61</ele> <time>2026-03-05T11:24:14Z</time> </trkpt>
 <trkpt lat="46.3595750" lon="13.8772350"> <ele>2156.93</ele> <time>2026-03-05T11:24:46Z</time> </trkpt>
 <trkpt lat="46.3597433" lon="13.8771400"> <ele>2165.93</ele> <time>2026-03-05T11:26:54Z</time> </trkpt>
 <trkpt lat="46.3599433" lon="13.8771417"> <ele>2172.99</ele> <time>2026-03-05T11:27:34Z</time> </trkpt>
 <trkpt lat="46.3601250" lon="13.8771350"> <ele>2179.36</ele> <time>2026-03-05T11:28:18Z</time> </trkpt>
 <trkpt lat="46.3603050" lon="13.8770933"> <ele>2181.36</ele> <time>2026-03-05T11:29:18Z</time> </trkpt>
 <trkpt lat="46.3601717" lon="13.8768733"> <ele>2189.57</ele> <time>2026-03-05T11:31:26Z</time> </trkpt>
 <trkpt lat="46.3600500" lon="13.8766250"> <ele>2197.88</ele> <time>2026-03-05T11:33:18Z</time> </trkpt>
 <trkpt lat="46.3599583" lon="13.8763933"> <ele>2207.02</ele> <time>2026-03-05T11:34:26Z</time> </trkpt>
 <trkpt lat="46.3601400" lon="13.8763633"> <ele>2213.06</ele> <time>2026-03-05T11:35:54Z</time> </trkpt>
 <trkpt lat="46.3601467" lon="13.8760950"> <ele>2224.98</ele> <time>2026-03-05T11:38:46Z</time> </trkpt>
 <trkpt lat="46.3601400" lon="13.8758333"> <ele>2241.14</ele> <time>2026-03-05T11:41:02Z</time> </trkpt>
 <trkpt lat="46.3600700" lon="13.8760883"> <ele>2223.90</ele> <time>2026-03-05T12:21:25Z</time> </trkpt>
 <trkpt lat="46.3602167" lon="13.8763750"> <ele>2208.68</ele> <time>2026-03-05T12:21:53Z</time> </trkpt>
 <trkpt lat="46.3603033" lon="13.8766217"> <ele>2199.38</ele> <time>2026-03-05T12:22:13Z</time> </trkpt>
 <trkpt lat="46.3600883" lon="13.8766933"> <ele>2190.67</ele> <time>2026-03-05T12:22:29Z</time> </trkpt>
 <trkpt lat="46.3600500" lon="13.8769583"> <ele>2179.05</ele> <time>2026-03-05T12:22:53Z</time> </trkpt>
 <trkpt lat="46.3599067" lon="13.8771300"> <ele>2160.58</ele> <time>2026-03-05T12:23:05Z</time> </trkpt>
 <trkpt lat="46.3597783" lon="13.8773200"> <ele>2152.00</ele> <time>2026-03-05T12:24:37Z</time> </trkpt>
 <trkpt lat="46.3597717" lon="13.8776917"> <ele>2134.76</ele> <time>2026-03-05T12:24:49Z</time> </trkpt>
 <trkpt lat="46.3596717" lon="13.8779500"> <ele>2122.62</ele> <time>2026-03-05T12:24:57Z</time> </trkpt>
 <trkpt lat="46.3596383" lon="13.8782267"> <ele>2108.98</ele> <time>2026-03-05T12:25:05Z</time> </trkpt>
 <trkpt lat="46.3595083" lon="13.8785700"> <ele>2089.86</ele> <time>2026-03-05T12:25:17Z</time> </trkpt>
 <trkpt lat="46.3593250" lon="13.8786067"> <ele>2083.96</ele> <time>2026-03-05T12:26:53Z</time> </trkpt>
 <trkpt lat="46.3593983" lon="13.8788800"> <ele>2077.61</ele> <time>2026-03-05T12:27:01Z</time> </trkpt>
 <trkpt lat="46.3593500" lon="13.8791750"> <ele>2064.71</ele> <time>2026-03-05T12:27:17Z</time> </trkpt>
 <trkpt lat="46.3592467" lon="13.8794783"> <ele>2052.76</ele> <time>2026-03-05T12:28:55Z</time> </trkpt>
 <trkpt lat="46.3590433" lon="13.8796917"> <ele>2039.09</ele> <time>2026-03-05T12:29:07Z</time> </trkpt>
 <trkpt lat="46.3588533" lon="13.8798667"> <ele>2022.86</ele> <time>2026-03-05T12:29:15Z</time> </trkpt>
 <trkpt lat="46.3585767" lon="13.8800117"> <ele>2009.49</ele> <time>2026-03-05T12:29:23Z</time> </trkpt>
 <trkpt lat="46.3583450" lon="13.8800433"> <ele>2005.06</ele> <time>2026-03-05T12:29:27Z</time> </trkpt>
 <trkpt lat="46.3580400" lon="13.8799750"> <ele>1998.71</ele> <time>2026-03-05T12:29:35Z</time> </trkpt>
 <trkpt lat="46.3577533" lon="13.8799633"> <ele>1984.12</ele> <time>2026-03-05T12:29:43Z</time> </trkpt>
 <trkpt lat="46.3575767" lon="13.8801433"> <ele>1983.26</ele> <time>2026-03-05T12:30:35Z</time> </trkpt>
 <trkpt lat="46.3573250" lon="13.8801250"> <ele>1972.05</ele> <time>2026-03-05T12:30:47Z</time> </trkpt>
 <trkpt lat="46.3570783" lon="13.8799283"> <ele>1956.50</ele> <time>2026-03-05T12:32:22Z</time> </trkpt>
 <trkpt lat="46.3569050" lon="13.8801733"> <ele>1945.17</ele> <time>2026-03-05T12:32:30Z</time> </trkpt>
 <trkpt lat="46.3564800" lon="13.8802750"> <ele>1930.18</ele> <time>2026-03-05T12:32:50Z</time> </trkpt>
 <trkpt lat="46.3562067" lon="13.8803700"> <ele>1928.07</ele> <time>2026-03-05T12:32:54Z</time> </trkpt>
 <trkpt lat="46.3560017" lon="13.8804100"> <ele>1927.01</ele> <time>2026-03-05T12:32:58Z</time> </trkpt>
 <trkpt lat="46.3558017" lon="13.8804583"> <ele>1922.32</ele> <time>2026-03-05T12:33:06Z</time> </trkpt>
 <trkpt lat="46.3556433" lon="13.8806950"> <ele>1917.11</ele> <time>2026-03-05T12:34:38Z</time> </trkpt>
 <trkpt lat="46.3555800" lon="13.8811217"> <ele>1910.41</ele> <time>2026-03-05T12:34:46Z</time> </trkpt>
 <trkpt lat="46.3553650" lon="13.8812450"> <ele>1893.80</ele> <time>2026-03-05T12:35:06Z</time> </trkpt>
 <trkpt lat="46.3553333" lon="13.8815050"> <ele>1881.60</ele> <time>2026-03-05T12:36:16Z</time> </trkpt>
 <trkpt lat="46.3552200" lon="13.8818017"> <ele>1868.64</ele> <time>2026-03-05T12:36:40Z</time> </trkpt>
 <trkpt lat="46.3549950" lon="13.8821950"> <ele>1865.22</ele> <time>2026-03-05T12:36:44Z</time> </trkpt>
 <trkpt lat="46.3550483" lon="13.8825417"> <ele>1855.07</ele> <time>2026-03-05T12:37:00Z</time> </trkpt>
 <trkpt lat="46.3552150" lon="13.8827733"> <ele>1842.18</ele> <time>2026-03-05T12:37:08Z</time> </trkpt>
 <trkpt lat="46.3552033" lon="13.8832333"> <ele>1827.73</ele> <time>2026-03-05T12:38:04Z</time> </trkpt>
 <trkpt lat="46.3553250" lon="13.8836083"> <ele>1818.45</ele> <time>2026-03-05T12:38:12Z</time> </trkpt>
 <trkpt lat="46.3553567" lon="13.8839133"> <ele>1810.74</ele> <time>2026-03-05T12:38:20Z</time> </trkpt>
 <trkpt lat="46.3555100" lon="13.8842667"> <ele>1796.80</ele> <time>2026-03-05T12:38:28Z</time> </trkpt>
 <trkpt lat="46.3556367" lon="13.8846167"> <ele>1786.88</ele> <time>2026-03-05T12:38:36Z</time> </trkpt>
 <trkpt lat="46.3557983" lon="13.8848633"> <ele>1776.30</ele> <time>2026-03-05T12:38:44Z</time> </trkpt>
 <trkpt lat="46.3560450" lon="13.8852450"> <ele>1763.41</ele> <time>2026-03-05T12:38:52Z</time> </trkpt>
 <trkpt lat="46.3562133" lon="13.8853750"> <ele>1756.86</ele> <time>2026-03-05T12:38:56Z</time> </trkpt>
 <trkpt lat="46.3564200" lon="13.8856417"> <ele>1752.03</ele> <time>2026-03-05T12:39:00Z</time> </trkpt>
 <trkpt lat="46.3566500" lon="13.8858467"> <ele>1746.45</ele> <time>2026-03-05T12:39:04Z</time> </trkpt>
 <trkpt lat="46.3568383" lon="13.8860967"> <ele>1740.79</ele> <time>2026-03-05T12:39:08Z</time> </trkpt>
 <trkpt lat="46.3571367" lon="13.8864067"> <ele>1734.89</ele> <time>2026-03-05T12:39:12Z</time> </trkpt>
 <trkpt lat="46.3575217" lon="13.8868183"> <ele>1726.82</ele> <time>2026-03-05T12:39:16Z</time> </trkpt>
 <trkpt lat="46.3578350" lon="13.8872667"> <ele>1719.15</ele> <time>2026-03-05T12:39:20Z</time> </trkpt>
 <trkpt lat="46.3580883" lon="13.8876350"> <ele>1715.16</ele> <time>2026-03-05T12:39:24Z</time> </trkpt>
 <trkpt lat="46.3582450" lon="13.8878383"> <ele>1715.58</ele> <time>2026-03-05T12:39:28Z</time> </trkpt>
 <trkpt lat="46.3583183" lon="13.8880900"> <ele>1734.12</ele> <time>2026-03-05T12:56:18Z</time> </trkpt>
 <trkpt lat="46.3584283" lon="13.8882967"> <ele>1738.19</ele> <time>2026-03-05T12:56:50Z</time> </trkpt>
 <trkpt lat="46.3585750" lon="13.8884667"> <ele>1738.79</ele> <time>2026-03-05T12:57:26Z</time> </trkpt>
 <trkpt lat="46.3587317" lon="13.8886567"> <ele>1739.37</ele> <time>2026-03-05T12:58:02Z</time> </trkpt>
 <trkpt lat="46.3588783" lon="13.8888217"> <ele>1741.00</ele> <time>2026-03-05T12:58:34Z</time> </trkpt>
 <trkpt lat="46.3589983" lon="13.8890300"> <ele>1743.52</ele> <time>2026-03-05T12:59:10Z</time> </trkpt>
 <trkpt lat="46.3591333" lon="13.8892167"> <ele>1752.63</ele> <time>2026-03-05T13:00:10Z</time> </trkpt>
 <trkpt lat="46.3592633" lon="13.8894250"> <ele>1752.77</ele> <time>2026-03-05T13:00:58Z</time> </trkpt>
 <trkpt lat="46.3593617" lon="13.8896567"> <ele>1757.73</ele> <time>2026-03-05T13:01:38Z</time> </trkpt>
 <trkpt lat="46.3595000" lon="13.8898500"> <ele>1765.74</ele> <time>2026-03-05T13:02:38Z</time> </trkpt>
 <trkpt lat="46.3596183" lon="13.8900650"> <ele>1771.83</ele> <time>2026-03-05T13:03:34Z</time> </trkpt>
 <trkpt lat="46.3597533" lon="13.8902433"> <ele>1778.36</ele> <time>2026-03-05T13:04:50Z</time> </trkpt>
 <trkpt lat="46.3598317" lon="13.8904950"> <ele>1786.40</ele> <time>2026-03-05T13:05:46Z</time> </trkpt>
 <trkpt lat="46.3599217" lon="13.8907317"> <ele>1795.25</ele> <time>2026-03-05T13:06:38Z</time> </trkpt>
 <trkpt lat="46.3600250" lon="13.8909550"> <ele>1803.36</ele> <time>2026-03-05T13:07:46Z</time> </trkpt>
 <trkpt lat="46.3600517" lon="13.8912233"> <ele>1808.53</ele> <time>2026-03-05T13:08:42Z</time> </trkpt>
 <trkpt lat="46.3601133" lon="13.8914750"> <ele>1815.10</ele> <time>2026-03-05T13:09:46Z</time> </trkpt>
 <trkpt lat="46.3601900" lon="13.8917217"> <ele>1825.58</ele> <time>2026-03-05T13:10:46Z</time> </trkpt>
 <trkpt lat="46.3603750" lon="13.8918117"> <ele>1832.70</ele> <time>2026-03-05T13:12:14Z</time> </trkpt>
 <trkpt lat="46.3604417" lon="13.8920567"> <ele>1846.98</ele> <time>2026-03-05T13:13:58Z</time> </trkpt>
 <trkpt lat="46.3605083" lon="13.8923033"> <ele>1853.97</ele> <time>2026-03-05T13:15:50Z</time> </trkpt>
 <trkpt lat="46.3606833" lon="13.8923833"> <ele>1865.43</ele> <time>2026-03-05T13:17:26Z</time> </trkpt>
 <trkpt lat="46.3607600" lon="13.8926333"> <ele>1869.82</ele> <time>2026-03-05T13:18:18Z</time> </trkpt>
 <trkpt lat="46.3606367" lon="13.8928533"> <ele>1874.44</ele> <time>2026-03-05T13:19:06Z</time> </trkpt>
 <trkpt lat="46.3605000" lon="13.8930233"> <ele>1878.81</ele> <time>2026-03-05T13:19:42Z</time> </trkpt>
 <trkpt lat="46.3606317" lon="13.8932467"> <ele>1883.43</ele> <time>2026-03-05T13:22:26Z</time> </trkpt>
 <trkpt lat="46.3608033" lon="13.8933600"> <ele>1891.66</ele> <time>2026-03-05T13:24:06Z</time> </trkpt>
 <trkpt lat="46.3609667" lon="13.8935400"> <ele>1896.95</ele> <time>2026-03-05T13:25:06Z</time> </trkpt>
 <trkpt lat="46.3608683" lon="13.8933183"> <ele>1926.48</ele> <time>2026-03-05T13:39:14Z</time> </trkpt>
 <trkpt lat="46.3609650" lon="13.8935700"> <ele>1913.99</ele> <time>2026-03-05T13:39:58Z</time> </trkpt>
 <trkpt lat="46.3609933" lon="13.8938567"> <ele>1923.22</ele> <time>2026-03-05T13:55:12Z</time> </trkpt>
 <trkpt lat="46.3611083" lon="13.8941000"> <ele>1958.01</ele> <time>2026-03-05T13:57:52Z</time> </trkpt>
 <trkpt lat="46.3611783" lon="13.8943517"> <ele>1960.18</ele> <time>2026-03-05T13:58:56Z</time> </trkpt>
 <trkpt lat="46.3610167" lon="13.8945917"> <ele>1957.61</ele> <time>2026-03-05T14:13:52Z</time> </trkpt>
 <trkpt lat="46.3610700" lon="13.8948783"> <ele>1941.91</ele> <time>2026-03-05T14:14:16Z</time> </trkpt>
 <trkpt lat="46.3612567" lon="13.8951333"> <ele>1924.64</ele> <time>2026-03-05T14:14:28Z</time> </trkpt>
 <trkpt lat="46.3613067" lon="13.8954650"> <ele>1911.73</ele> <time>2026-03-05T14:15:12Z</time> </trkpt>
 <trkpt lat="46.3611750" lon="13.8957233"> <ele>1905.24</ele> <time>2026-03-05T14:15:52Z</time> </trkpt>
 <trkpt lat="46.3609367" lon="13.8959783"> <ele>1901.59</ele> <time>2026-03-05T14:16:00Z</time> </trkpt>
 <trkpt lat="46.3607950" lon="13.8962617"> <ele>1897.21</ele> <time>2026-03-05T14:16:08Z</time> </trkpt>
 <trkpt lat="46.3606550" lon="13.8964650"> <ele>1893.60</ele> <time>2026-03-05T14:16:12Z</time> </trkpt>
 <trkpt lat="46.3605200" lon="13.8967467"> <ele>1889.02</ele> <time>2026-03-05T14:16:16Z</time> </trkpt>
 <trkpt lat="46.3604567" lon="13.8970067"> <ele>1884.57</ele> <time>2026-03-05T14:16:20Z</time> </trkpt>
 <trkpt lat="46.3605033" lon="13.8974533"> <ele>1874.37</ele> <time>2026-03-05T14:16:28Z</time> </trkpt>
 <trkpt lat="46.3606150" lon="13.8976883"> <ele>1869.67</ele> <time>2026-03-05T14:16:32Z</time> </trkpt>
 <trkpt lat="46.3607267" lon="13.8979067"> <ele>1867.77</ele> <time>2026-03-05T14:16:36Z</time> </trkpt>
 <trkpt lat="46.3608967" lon="13.8983117"> <ele>1867.72</ele> <time>2026-03-05T14:16:44Z</time> </trkpt>
 <trkpt lat="46.3609933" lon="13.8985383"> <ele>1865.37</ele> <time>2026-03-05T14:16:48Z</time> </trkpt>
 <trkpt lat="46.3611517" lon="13.8988783"> <ele>1862.03</ele> <time>2026-03-05T14:16:56Z</time> </trkpt>
 <trkpt lat="46.3612083" lon="13.8991650"> <ele>1857.97</ele> <time>2026-03-05T14:17:04Z</time> </trkpt>
 <trkpt lat="46.3611817" lon="13.8995583"> <ele>1854.32</ele> <time>2026-03-05T14:17:12Z</time> </trkpt>
 <trkpt lat="46.3611517" lon="13.8998333"> <ele>1849.59</ele> <time>2026-03-05T14:17:20Z</time> </trkpt>
 <trkpt lat="46.3610983" lon="13.9002150"> <ele>1850.05</ele> <time>2026-03-05T14:17:28Z</time> </trkpt>
 <trkpt lat="46.3609917" lon="13.9005867"> <ele>1848.40</ele> <time>2026-03-05T14:17:36Z</time> </trkpt>
 <trkpt lat="46.3608750" lon="13.9008167"> <ele>1846.77</ele> <time>2026-03-05T14:17:44Z</time> </trkpt>
 <trkpt lat="46.3606517" lon="13.9011717"> <ele>1848.65</ele> <time>2026-03-05T14:17:52Z</time> </trkpt>
 <trkpt lat="46.3604350" lon="13.9014850"> <ele>1848.49</ele> <time>2026-03-05T14:18:00Z</time> </trkpt>
 <trkpt lat="46.3602950" lon="13.9016800"> <ele>1847.66</ele> <time>2026-03-05T14:18:08Z</time> </trkpt>
 <trkpt lat="46.3600533" lon="13.9017933"> <ele>1846.18</ele> <time>2026-03-05T14:18:16Z</time> </trkpt>
 <trkpt lat="46.3599117" lon="13.9021433"> <ele>1837.76</ele> <time>2026-03-05T14:18:36Z</time> </trkpt>
 <trkpt lat="46.3598450" lon="13.9023950"> <ele>1836.81</ele> <time>2026-03-05T14:18:48Z</time> </trkpt>
 <trkpt lat="46.3597583" lon="13.9026483"> <ele>1837.42</ele> <time>2026-03-05T14:19:08Z</time> </trkpt>
 <trkpt lat="46.3597100" lon="13.9029100"> <ele>1843.81</ele> <time>2026-03-05T14:22:08Z</time> </trkpt>
 <trkpt lat="46.3596967" lon="13.9031767"> <ele>1844.97</ele> <time>2026-03-05T14:22:40Z</time> </trkpt>
 <trkpt lat="46.3597067" lon="13.9034917"> <ele>1848.31</ele> <time>2026-03-05T14:22:56Z</time> </trkpt>
 <trkpt lat="46.3596983" lon="13.9037583"> <ele>1846.92</ele> <time>2026-03-05T14:25:40Z</time> </trkpt>
 <trkpt lat="46.3597083" lon="13.9040267"> <ele>1852.15</ele> <time>2026-03-05T14:26:00Z</time> </trkpt>
 <trkpt lat="46.3597067" lon="13.9042917"> <ele>1853.34</ele> <time>2026-03-05T14:26:44Z</time> </trkpt>
 <trkpt lat="46.3597283" lon="13.9045683"> <ele>1854.16</ele> <time>2026-03-05T14:27:16Z</time> </trkpt>
 <trkpt lat="46.3596683" lon="13.9048367"> <ele>1858.36</ele> <time>2026-03-05T14:27:44Z</time> </trkpt>
 <trkpt lat="46.3596000" lon="13.9050800"> <ele>1861.22</ele> <time>2026-03-05T14:28:12Z</time> </trkpt>
 <trkpt lat="46.3593867" lon="13.9051833"> <ele>1856.25</ele> <time>2026-03-05T14:33:08Z</time> </trkpt>
 <trkpt lat="46.3591833" lon="13.9052883"> <ele>1856.14</ele> <time>2026-03-05T14:33:16Z</time> </trkpt>
 <trkpt lat="46.3590717" lon="13.9055617"> <ele>1851.45</ele> <time>2026-03-05T14:33:24Z</time> </trkpt>
 <trkpt lat="46.3588767" lon="13.9056467"> <ele>1846.72</ele> <time>2026-03-05T14:33:32Z</time> </trkpt>
 <trkpt lat="46.3586750" lon="13.9056100"> <ele>1843.11</ele> <time>2026-03-05T14:33:36Z</time> </trkpt>
 <trkpt lat="46.3586500" lon="13.9060233"> <ele>1833.13</ele> <time>2026-03-05T14:34:52Z</time> </trkpt>
 <trkpt lat="46.3586450" lon="13.9063900"> <ele>1824.93</ele> <time>2026-03-05T14:35:08Z</time> </trkpt>
 <trkpt lat="46.3584150" lon="13.9064767"> <ele>1815.08</ele> <time>2026-03-05T14:35:20Z</time> </trkpt>
 <trkpt lat="46.3582367" lon="13.9063900"> <ele>1812.25</ele> <time>2026-03-05T14:35:40Z</time> </trkpt>
 <trkpt lat="46.3580367" lon="13.9064700"> <ele>1800.34</ele> <time>2026-03-05T14:35:48Z</time> </trkpt>
 <trkpt lat="46.3578367" lon="13.9065700"> <ele>1787.11</ele> <time>2026-03-05T14:35:56Z</time> </trkpt>
 <trkpt lat="46.3576283" lon="13.9063933"> <ele>1784.24</ele> <time>2026-03-05T14:36:32Z</time> </trkpt>
 <trkpt lat="46.3574517" lon="13.9061133"> <ele>1767.22</ele> <time>2026-03-05T14:36:48Z</time> </trkpt>
 <trkpt lat="46.3572183" lon="13.9059817"> <ele>1761.45</ele> <time>2026-03-05T14:37:08Z</time> </trkpt>
 <trkpt lat="46.3569550" lon="13.9059650"> <ele>1757.37</ele> <time>2026-03-05T14:37:32Z</time> </trkpt>
 <trkpt lat="46.3566650" lon="13.9058233"> <ele>1743.90</ele> <time>2026-03-05T14:37:44Z</time> </trkpt>
 <trkpt lat="46.3564400" lon="13.9056783"> <ele>1740.78</ele> <time>2026-03-05T14:38:00Z</time> </trkpt>
 <trkpt lat="46.3561150" lon="13.9057000"> <ele>1727.48</ele> <time>2026-03-05T14:38:08Z</time> </trkpt>
 <trkpt lat="46.3559167" lon="13.9057733"> <ele>1722.86</ele> <time>2026-03-05T14:38:20Z</time> </trkpt>
 <trkpt lat="46.3558383" lon="13.9060300"> <ele>1716.45</ele> <time>2026-03-05T14:38:28Z</time> </trkpt>
 <trkpt lat="46.3556317" lon="13.9062617"> <ele>1708.20</ele> <time>2026-03-05T14:38:36Z</time> </trkpt>
 <trkpt lat="46.3555417" lon="13.9065050"> <ele>1706.99</ele> <time>2026-03-05T14:39:00Z</time> </trkpt>
 <trkpt lat="46.3552633" lon="13.9065550"> <ele>1698.20</ele> <time>2026-03-05T14:39:12Z</time> </trkpt>
 <trkpt lat="46.3550683" lon="13.9064500"> <ele>1695.33</ele> <time>2026-03-05T14:39:36Z</time> </trkpt>
 <trkpt lat="46.3550250" lon="13.9067050"> <ele>1684.98</ele> <time>2026-03-05T14:39:52Z</time> </trkpt>
 <trkpt lat="46.3551467" lon="13.9069283"> <ele>1678.46</ele> <time>2026-03-05T14:40:08Z</time> </trkpt>
 <trkpt lat="46.3551933" lon="13.9072367"> <ele>1669.35</ele> <time>2026-03-05T14:40:36Z</time> </trkpt>
 <trkpt lat="46.3551900" lon="13.9075367"> <ele>1655.02</ele> <time>2026-03-05T14:41:00Z</time> </trkpt>
 <trkpt lat="46.3550917" lon="13.9077900"> <ele>1646.31</ele> <time>2026-03-05T14:41:32Z</time> </trkpt>
 <trkpt lat="46.3550150" lon="13.9080683"> <ele>1635.79</ele> <time>2026-03-05T14:41:56Z</time> </trkpt>
 <trkpt lat="46.3548433" lon="13.9081900"> <ele>1629.41</ele> <time>2026-03-05T14:42:08Z</time> </trkpt>
 <trkpt lat="46.3547167" lon="13.9084050"> <ele>1619.13</ele> <time>2026-03-05T14:42:28Z</time> </trkpt>
 <trkpt lat="46.3546283" lon="13.9086733"> <ele>1605.86</ele> <time>2026-03-05T14:42:52Z</time> </trkpt>
 <trkpt lat="46.3546133" lon="13.9089433"> <ele>1596.20</ele> <time>2026-03-05T14:43:08Z</time> </trkpt>
 <trkpt lat="46.3546083" lon="13.9093083"> <ele>1587.83</ele> <time>2026-03-05T14:43:24Z</time> </trkpt>
 <trkpt lat="46.3544867" lon="13.9095267"> <ele>1578.18</ele> <time>2026-03-05T14:43:40Z</time> </trkpt>
 <trkpt lat="46.3542717" lon="13.9096483"> <ele>1569.19</ele> <time>2026-03-05T14:43:56Z</time> </trkpt>
 <trkpt lat="46.3540900" lon="13.9100083"> <ele>1551.49</ele> <time>2026-03-05T14:44:08Z</time> </trkpt>
 <trkpt lat="46.3540033" lon="13.9102733"> <ele>1535.44</ele> <time>2026-03-05T14:44:16Z</time> </trkpt>
 <trkpt lat="46.3539967" lon="13.9105683"> <ele>1537.12</ele> <time>2026-03-05T14:44:48Z</time> </trkpt>
 <trkpt lat="46.3540250" lon="13.9109283"> <ele>1536.49</ele> <time>2026-03-05T14:44:56Z</time> </trkpt>
 <trkpt lat="46.3539117" lon="13.9113017"> <ele>1527.28</ele> <time>2026-03-05T14:45:04Z</time> </trkpt>
 <trkpt lat="46.3537633" lon="13.9116000"> <ele>1512.38</ele> <time>2026-03-05T14:45:16Z</time> </trkpt>
 <trkpt lat="46.3536050" lon="13.9118850"> <ele>1502.80</ele> <time>2026-03-05T14:45:24Z</time> </trkpt>
 <trkpt lat="46.3535467" lon="13.9122250"> <ele>1491.41</ele> <time>2026-03-05T14:45:32Z</time> </trkpt>
 <trkpt lat="46.3534683" lon="13.9125783"> <ele>1479.46</ele> <time>2026-03-05T14:45:40Z</time> </trkpt>
 <trkpt lat="46.3533883" lon="13.9129800"> <ele>1467.85</ele> <time>2026-03-05T14:45:48Z</time> </trkpt>
 <trkpt lat="46.3533183" lon="13.9134867"> <ele>1457.78</ele> <time>2026-03-05T14:45:56Z</time> </trkpt>
 <trkpt lat="46.3531550" lon="13.9139750"> <ele>1450.28</ele> <time>2026-03-05T14:46:04Z</time> </trkpt>
 <trkpt lat="46.3529800" lon="13.9141517"> <ele>1446.62</ele> <time>2026-03-05T14:46:08Z</time> </trkpt>
 <trkpt lat="46.3528867" lon="13.9145150"> <ele>1438.61</ele> <time>2026-03-05T14:46:44Z</time> </trkpt>
 <trkpt lat="46.3528250" lon="13.9149583"> <ele>1437.73</ele> <time>2026-03-05T14:46:48Z</time> </trkpt>
 <trkpt lat="46.3527067" lon="13.9152783"> <ele>1434.81</ele> <time>2026-03-05T14:46:52Z</time> </trkpt>
 <trkpt lat="46.3524467" lon="13.9155667"> <ele>1426.70</ele> <time>2026-03-05T14:47:00Z</time> </trkpt>
 <trkpt lat="46.3522367" lon="13.9156033"> <ele>1422.82</ele> <time>2026-03-05T14:47:04Z</time> </trkpt>
 <trkpt lat="46.3520600" lon="13.9156750"> <ele>1417.88</ele> <time>2026-03-05T14:47:08Z</time> </trkpt>
 <trkpt lat="46.3517417" lon="13.9156850"> <ele>1411.14</ele> <time>2026-03-05T14:47:12Z</time> </trkpt>
 <trkpt lat="46.3514417" lon="13.9156967"> <ele>1404.15</ele> <time>2026-03-05T14:47:16Z</time> </trkpt>
 <trkpt lat="46.3511517" lon="13.9156550"> <ele>1398.00</ele> <time>2026-03-05T14:47:20Z</time> </trkpt>
 <trkpt lat="46.3509267" lon="13.9157017"> <ele>1396.23</ele> <time>2026-03-05T14:47:28Z</time> </trkpt>
 <trkpt lat="46.3506550" lon="13.9157583"> <ele>1398.92</ele> <time>2026-03-05T14:47:44Z</time> </trkpt>
 <trkpt lat="46.3504483" lon="13.9158050"> <ele>1398.32</ele> <time>2026-03-05T14:47:48Z</time> </trkpt>
 <trkpt lat="46.3502850" lon="13.9160783"> <ele>1395.64</ele> <time>2026-03-05T14:47:56Z</time> </trkpt>
 <trkpt lat="46.3501500" lon="13.9162917"> <ele>1393.76</ele> <time>2026-03-05T14:48:00Z</time> </trkpt>
 <trkpt lat="46.3500000" lon="13.9165617"> <ele>1392.15</ele> <time>2026-03-05T14:48:04Z</time> </trkpt>
 <trkpt lat="46.3498267" lon="13.9168583"> <ele>1390.27</ele> <time>2026-03-05T14:48:08Z</time> </trkpt>
 <trkpt lat="46.3496467" lon="13.9171833"> <ele>1386.90</ele> <time>2026-03-05T14:48:12Z</time> </trkpt>
 <trkpt lat="46.3494717" lon="13.9175267"> <ele>1383.30</ele> <time>2026-03-05T14:48:16Z</time> </trkpt>
 <trkpt lat="46.3492867" lon="13.9178550"> <ele>1380.89</ele> <time>2026-03-05T14:48:20Z</time> </trkpt>
 <trkpt lat="46.3490800" lon="13.9180367"> <ele>1379.89</ele> <time>2026-03-05T14:48:24Z</time> </trkpt>
 <trkpt lat="46.3488383" lon="13.9181350"> <ele>1380.57</ele> <time>2026-03-05T14:48:28Z</time> </trkpt>
 <trkpt lat="46.3486067" lon="13.9182450"> <ele>1380.56</ele> <time>2026-03-05T14:48:32Z</time> </trkpt>
 <trkpt lat="46.3483833" lon="13.9183650"> <ele>1376.36</ele> <time>2026-03-05T14:48:36Z</time> </trkpt>
 <trkpt lat="46.3481083" lon="13.9184350"> <ele>1370.49</ele> <time>2026-03-05T14:48:44Z</time> </trkpt>
 <trkpt lat="46.3479033" lon="13.9187433"> <ele>1361.03</ele> <time>2026-03-05T14:48:52Z</time> </trkpt>
 <trkpt lat="46.3478267" lon="13.9189833"> <ele>1355.66</ele> <time>2026-03-05T14:48:56Z</time> </trkpt>
 <trkpt lat="46.3477500" lon="13.9192783"> <ele>1352.99</ele> <time>2026-03-05T14:49:04Z</time> </trkpt>
 <trkpt lat="46.3477467" lon="13.9196450"> <ele>1359.42</ele> <time>2026-03-05T14:49:28Z</time> </trkpt>
 <trkpt lat="46.3477233" lon="13.9200583"> <ele>1362.98</ele> <time>2026-03-05T14:50:08Z</time> </trkpt>
 <trkpt lat="46.3476900" lon="13.9203883"> <ele>1359.92</ele> <time>2026-03-05T14:50:16Z</time> </trkpt>
 <trkpt lat="46.3476100" lon="13.9207317"> <ele>1355.31</ele> <time>2026-03-05T14:50:24Z</time> </trkpt>
 <trkpt lat="46.3475333" lon="13.9211217"> <ele>1350.15</ele> <time>2026-03-05T14:50:32Z</time> </trkpt>
 <trkpt lat="46.3474217" lon="13.9215400"> <ele>1342.36</ele> <time>2026-03-05T14:50:40Z</time> </trkpt>
 <trkpt lat="46.3472367" lon="13.9217050"> <ele>1333.41</ele> <time>2026-03-05T14:50:48Z</time> </trkpt>
 <trkpt lat="46.3471917" lon="13.9220500"> <ele>1329.84</ele> <time>2026-03-05T14:50:56Z</time> </trkpt>
 <trkpt lat="46.3471100" lon="13.9223633"> <ele>1334.45</ele> <time>2026-03-05T14:51:16Z</time> </trkpt>
 <trkpt lat="46.3469150" lon="13.9223883"> <ele>1335.93</ele> <time>2026-03-05T14:51:24Z</time> </trkpt>
 <trkpt lat="46.3467267" lon="13.9225333"> <ele>1336.60</ele> <time>2026-03-05T14:51:32Z</time> </trkpt>
 <trkpt lat="46.3468350" lon="13.9227967"> <ele>1334.99</ele> <time>2026-03-05T14:51:40Z</time> </trkpt>
 <trkpt lat="46.3469333" lon="13.9230567"> <ele>1333.32</ele> <time>2026-03-05T14:51:48Z</time> </trkpt>
 <trkpt lat="46.3469850" lon="13.9233167"> <ele>1335.63</ele> <time>2026-03-05T14:52:00Z</time> </trkpt>
 <trkpt lat="46.3469583" lon="13.9236150"> <ele>1338.20</ele> <time>2026-03-05T14:52:40Z</time> </trkpt>
 <trkpt lat="46.3469517" lon="13.9239083"> <ele>1336.76</ele> <time>2026-03-05T14:53:00Z</time> </trkpt>
 <trkpt lat="46.3470233" lon="13.9242117"> <ele>1336.58</ele> <time>2026-03-05T14:53:28Z</time> </trkpt>
 <trkpt lat="46.3471517" lon="13.9244250"> <ele>1338.36</ele> <time>2026-03-05T14:54:08Z</time> </trkpt>
 <trkpt lat="46.3473350" lon="13.9245533"> <ele>1336.18</ele> <time>2026-03-05T14:54:28Z</time> </trkpt>
 <trkpt lat="46.3475617" lon="13.9246650"> <ele>1331.62</ele> <time>2026-03-05T14:54:52Z</time> </trkpt>
 <trkpt lat="46.3477433" lon="13.9247700"> <ele>1330.12</ele> <time>2026-03-05T14:55:04Z</time> </trkpt>
 <trkpt lat="46.3479317" lon="13.9249033"> <ele>1332.18</ele> <time>2026-03-05T14:55:16Z</time> </trkpt>
 <trkpt lat="46.3481000" lon="13.9250200"> <ele>1336.39</ele> <time>2026-03-05T14:55:32Z</time> </trkpt>
 </trkseg>
 </trk>
 </gpx> 